<?xml version="1.0" encoding="UTF-8" standalone="no" ?>
<gpx xmlns="http://www.topografix.com/GPX/1/1" xmlns:xsi="http://www.w3.org/2001/XMLSchema-instance" xsi:schemaLocation="http://www.topografix.com/GPX/1/1 http://www.topografix.com/GPX/1/1/gpx.xsd" version="1.1" creator="VisuGPX - https://www.visugpx.com">
  <metadata>
    <name>Besain,La fontaine du Riable</name>
  </metadata>
  <trk>
    <name><![CDATA[saved]]></name>
    <trkseg>
      <trkpt lat="46.80268" lon="5.79895">
        <ele>604.9</ele>
        <time>2020-05-12T12:37:01Z</time>
      </trkpt>
      <trkpt lat="46.80272" lon="5.79888">
        <ele>559.7</ele>
        <time>2020-05-12T12:37:19Z</time>
      </trkpt>
      <trkpt lat="46.80273" lon="5.79877">
        <ele>560.3</ele>
        <time>2020-05-12T12:37:32Z</time>
      </trkpt>
      <trkpt lat="46.80273" lon="5.7987">
        <ele>560.7</ele>
        <time>2020-05-12T12:37:37Z</time>
      </trkpt>
      <trkpt lat="46.80275" lon="5.79863">
        <ele>561.2</ele>
        <time>2020-05-12T12:37:45Z</time>
      </trkpt>
      <trkpt lat="46.8028" lon="5.79856">
        <ele>561.2</ele>
        <time>2020-05-12T12:37:51Z</time>
      </trkpt>
      <trkpt lat="46.80286" lon="5.79855">
        <ele>561.2</ele>
        <time>2020-05-12T12:37:54Z</time>
      </trkpt>
      <trkpt lat="46.80306" lon="5.79857">
        <ele>561.7</ele>
        <time>2020-05-12T12:38:07Z</time>
      </trkpt>
      <trkpt lat="46.80329" lon="5.79855">
        <ele>566.9</ele>
        <time>2020-05-12T12:38:29Z</time>
      </trkpt>
      <trkpt lat="46.80334" lon="5.79854">
        <ele>567.4</ele>
        <time>2020-05-12T12:38:34Z</time>
      </trkpt>
      <trkpt lat="46.80336" lon="5.79848">
        <ele>567.5</ele>
        <time>2020-05-12T12:38:37Z</time>
      </trkpt>
      <trkpt lat="46.80338" lon="5.79841">
        <ele>567.4</ele>
        <time>2020-05-12T12:38:42Z</time>
      </trkpt>
      <trkpt lat="46.80376" lon="5.79838">
        <ele>563.2</ele>
        <time>2020-05-12T12:39:48Z</time>
      </trkpt>
      <trkpt lat="46.80381" lon="5.79837">
        <ele>563.1</ele>
        <time>2020-05-12T12:39:55Z</time>
      </trkpt>
      <trkpt lat="46.80385" lon="5.79836">
        <ele>562.9</ele>
        <time>2020-05-12T12:40:03Z</time>
      </trkpt>
      <trkpt lat="46.80399" lon="5.79825">
        <ele>562.6</ele>
        <time>2020-05-12T12:40:37Z</time>
      </trkpt>
      <trkpt lat="46.80405" lon="5.79819">
        <ele>562.5</ele>
        <time>2020-05-12T12:40:40Z</time>
      </trkpt>
      <trkpt lat="46.80419" lon="5.79806">
        <ele>562.3</ele>
        <time>2020-05-12T12:41:15Z</time>
      </trkpt>
      <trkpt lat="46.80437" lon="5.79804">
        <ele>555.7</ele>
        <time>2020-05-12T12:42:45Z</time>
      </trkpt>
      <trkpt lat="46.80444" lon="5.79806">
        <ele>555</ele>
        <time>2020-05-12T12:42:48Z</time>
      </trkpt>
      <trkpt lat="46.80449" lon="5.79808">
        <ele>554.4</ele>
        <time>2020-05-12T12:42:51Z</time>
      </trkpt>
      <trkpt lat="46.80454" lon="5.79808">
        <ele>554.2</ele>
        <time>2020-05-12T12:43:02Z</time>
      </trkpt>
      <trkpt lat="46.80464" lon="5.79808">
        <ele>557.1</ele>
        <time>2020-05-12T12:44:00Z</time>
      </trkpt>
      <trkpt lat="46.80472" lon="5.79804">
        <ele>560.7</ele>
        <time>2020-05-12T12:44:16Z</time>
      </trkpt>
      <trkpt lat="46.80478" lon="5.798">
        <ele>561.1</ele>
        <time>2020-05-12T12:44:18Z</time>
      </trkpt>
      <trkpt lat="46.80483" lon="5.79796">
        <ele>561.4</ele>
        <time>2020-05-12T12:44:21Z</time>
      </trkpt>
      <trkpt lat="46.80496" lon="5.79786">
        <ele>561.4</ele>
        <time>2020-05-12T12:44:38Z</time>
      </trkpt>
      <trkpt lat="46.80501" lon="5.79787">
        <ele>561.8</ele>
        <time>2020-05-12T12:44:44Z</time>
      </trkpt>
      <trkpt lat="46.80514" lon="5.79782">
        <ele>563.2</ele>
        <time>2020-05-12T12:46:45Z</time>
      </trkpt>
      <trkpt lat="46.80518" lon="5.79778">
        <ele>562.5</ele>
        <time>2020-05-12T12:46:49Z</time>
      </trkpt>
      <trkpt lat="46.80523" lon="5.79779">
        <ele>560.8</ele>
        <time>2020-05-12T12:47:06Z</time>
      </trkpt>
      <trkpt lat="46.80527" lon="5.7978">
        <ele>560.4</ele>
        <time>2020-05-12T12:47:18Z</time>
      </trkpt>
      <trkpt lat="46.80532" lon="5.79779">
        <ele>560.5</ele>
        <time>2020-05-12T12:47:20Z</time>
      </trkpt>
      <trkpt lat="46.80537" lon="5.79778">
        <ele>560.6</ele>
        <time>2020-05-12T12:47:31Z</time>
      </trkpt>
      <trkpt lat="46.80543" lon="5.79775">
        <ele>560.3</ele>
        <time>2020-05-12T12:47:37Z</time>
      </trkpt>
      <trkpt lat="46.80554" lon="5.79772">
        <ele>558.8</ele>
        <time>2020-05-12T12:47:53Z</time>
      </trkpt>
      <trkpt lat="46.80558" lon="5.79768">
        <ele>558.9</ele>
        <time>2020-05-12T12:47:57Z</time>
      </trkpt>
      <trkpt lat="46.80565" lon="5.79765">
        <ele>561.1</ele>
        <time>2020-05-12T12:48:19Z</time>
      </trkpt>
      <trkpt lat="46.80571" lon="5.79761">
        <ele>561.4</ele>
        <time>2020-05-12T12:48:21Z</time>
      </trkpt>
      <trkpt lat="46.80578" lon="5.79755">
        <ele>561.7</ele>
        <time>2020-05-12T12:48:23Z</time>
      </trkpt>
      <trkpt lat="46.80584" lon="5.79754">
        <ele>562.2</ele>
        <time>2020-05-12T12:48:25Z</time>
      </trkpt>
      <trkpt lat="46.80589" lon="5.79754">
        <ele>562.6</ele>
        <time>2020-05-12T12:48:27Z</time>
      </trkpt>
      <trkpt lat="46.80594" lon="5.79754">
        <ele>563.6</ele>
        <time>2020-05-12T12:48:33Z</time>
      </trkpt>
      <trkpt lat="46.80598" lon="5.79755">
        <ele>564.8</ele>
        <time>2020-05-12T12:48:49Z</time>
      </trkpt>
      <trkpt lat="46.80603" lon="5.79755">
        <ele>565</ele>
        <time>2020-05-12T12:48:59Z</time>
      </trkpt>
      <trkpt lat="46.80608" lon="5.79756">
        <ele>564</ele>
        <time>2020-05-12T12:49:13Z</time>
      </trkpt>
      <trkpt lat="46.80614" lon="5.79754">
        <ele>563.5</ele>
        <time>2020-05-12T12:49:17Z</time>
      </trkpt>
      <trkpt lat="46.8062" lon="5.79751">
        <ele>562.7</ele>
        <time>2020-05-12T12:49:23Z</time>
      </trkpt>
      <trkpt lat="46.80625" lon="5.7975">
        <ele>561.8</ele>
        <time>2020-05-12T12:49:29Z</time>
      </trkpt>
      <trkpt lat="46.80629" lon="5.79748">
        <ele>561.1</ele>
        <time>2020-05-12T12:49:34Z</time>
      </trkpt>
      <trkpt lat="46.80634" lon="5.79746">
        <ele>560.8</ele>
        <time>2020-05-12T12:49:38Z</time>
      </trkpt>
      <trkpt lat="46.80638" lon="5.79747">
        <ele>560.6</ele>
        <time>2020-05-12T12:49:44Z</time>
      </trkpt>
      <trkpt lat="46.80643" lon="5.79746">
        <ele>560.6</ele>
        <time>2020-05-12T12:50:00Z</time>
      </trkpt>
      <trkpt lat="46.8065" lon="5.79748">
        <ele>560.1</ele>
        <time>2020-05-12T12:50:23Z</time>
      </trkpt>
      <trkpt lat="46.80654" lon="5.79746">
        <ele>560.1</ele>
        <time>2020-05-12T12:50:25Z</time>
      </trkpt>
      <trkpt lat="46.80659" lon="5.79743">
        <ele>560.2</ele>
        <time>2020-05-12T12:50:30Z</time>
      </trkpt>
      <trkpt lat="46.80669" lon="5.7974">
        <ele>561.5</ele>
        <time>2020-05-12T12:50:51Z</time>
      </trkpt>
      <trkpt lat="46.80674" lon="5.79738">
        <ele>561.8</ele>
        <time>2020-05-12T12:50:54Z</time>
      </trkpt>
      <trkpt lat="46.80678" lon="5.79735">
        <ele>562.1</ele>
        <time>2020-05-12T12:50:58Z</time>
      </trkpt>
      <trkpt lat="46.80681" lon="5.79731">
        <ele>562.5</ele>
        <time>2020-05-12T12:51:02Z</time>
      </trkpt>
      <trkpt lat="46.80684" lon="5.79724">
        <ele>562.8</ele>
        <time>2020-05-12T12:51:06Z</time>
      </trkpt>
      <trkpt lat="46.80685" lon="5.79717">
        <ele>563</ele>
        <time>2020-05-12T12:51:11Z</time>
      </trkpt>
      <trkpt lat="46.80688" lon="5.79711">
        <ele>563</ele>
        <time>2020-05-12T12:51:16Z</time>
      </trkpt>
      <trkpt lat="46.8069" lon="5.79705">
        <ele>562.6</ele>
        <time>2020-05-12T12:51:23Z</time>
      </trkpt>
      <trkpt lat="46.80689" lon="5.79698">
        <ele>562.3</ele>
        <time>2020-05-12T12:51:27Z</time>
      </trkpt>
      <trkpt lat="46.8069" lon="5.79691">
        <ele>562.1</ele>
        <time>2020-05-12T12:51:33Z</time>
      </trkpt>
      <trkpt lat="46.8069" lon="5.79684">
        <ele>562.1</ele>
        <time>2020-05-12T12:51:37Z</time>
      </trkpt>
      <trkpt lat="46.80692" lon="5.79677">
        <ele>563</ele>
        <time>2020-05-12T12:51:46Z</time>
      </trkpt>
      <trkpt lat="46.80694" lon="5.79671">
        <ele>563.6</ele>
        <time>2020-05-12T12:51:53Z</time>
      </trkpt>
      <trkpt lat="46.80701" lon="5.7966">
        <ele>564.9</ele>
        <time>2020-05-12T12:52:05Z</time>
      </trkpt>
      <trkpt lat="46.80701" lon="5.79653">
        <ele>565.1</ele>
        <time>2020-05-12T12:52:08Z</time>
      </trkpt>
      <trkpt lat="46.80706" lon="5.79633">
        <ele>565.2</ele>
        <time>2020-05-12T12:52:25Z</time>
      </trkpt>
      <trkpt lat="46.80709" lon="5.79627">
        <ele>565.1</ele>
        <time>2020-05-12T12:52:28Z</time>
      </trkpt>
      <trkpt lat="46.8071" lon="5.7962">
        <ele>565</ele>
        <time>2020-05-12T12:52:31Z</time>
      </trkpt>
      <trkpt lat="46.80713" lon="5.79614">
        <ele>564.9</ele>
        <time>2020-05-12T12:52:39Z</time>
      </trkpt>
      <trkpt lat="46.80716" lon="5.79607">
        <ele>565.3</ele>
        <time>2020-05-12T12:52:45Z</time>
      </trkpt>
      <trkpt lat="46.80719" lon="5.796">
        <ele>565.5</ele>
        <time>2020-05-12T12:52:47Z</time>
      </trkpt>
      <trkpt lat="46.80722" lon="5.79594">
        <ele>566.1</ele>
        <time>2020-05-12T12:52:53Z</time>
      </trkpt>
      <trkpt lat="46.80724" lon="5.79588">
        <ele>566.8</ele>
        <time>2020-05-12T12:53:02Z</time>
      </trkpt>
      <trkpt lat="46.80725" lon="5.79581">
        <ele>567</ele>
        <time>2020-05-12T12:53:05Z</time>
      </trkpt>
      <trkpt lat="46.80724" lon="5.79573">
        <ele>567</ele>
        <time>2020-05-12T12:53:11Z</time>
      </trkpt>
      <trkpt lat="46.80723" lon="5.79567">
        <ele>567.1</ele>
        <time>2020-05-12T12:53:21Z</time>
      </trkpt>
      <trkpt lat="46.80721" lon="5.79551">
        <ele>568.2</ele>
        <time>2020-05-12T12:53:42Z</time>
      </trkpt>
      <trkpt lat="46.80719" lon="5.79544">
        <ele>568.2</ele>
        <time>2020-05-12T12:53:47Z</time>
      </trkpt>
      <trkpt lat="46.80715" lon="5.79534">
        <ele>568.1</ele>
        <time>2020-05-12T12:53:49Z</time>
      </trkpt>
      <trkpt lat="46.80713" lon="5.79527">
        <ele>568</ele>
        <time>2020-05-12T12:53:51Z</time>
      </trkpt>
      <trkpt lat="46.8071" lon="5.79521">
        <ele>567.7</ele>
        <time>2020-05-12T12:53:56Z</time>
      </trkpt>
      <trkpt lat="46.80708" lon="5.79515">
        <ele>567.5</ele>
        <time>2020-05-12T12:53:59Z</time>
      </trkpt>
      <trkpt lat="46.80705" lon="5.79505">
        <ele>567.3</ele>
        <time>2020-05-12T12:54:01Z</time>
      </trkpt>
      <trkpt lat="46.80702" lon="5.79497">
        <ele>567.1</ele>
        <time>2020-05-12T12:54:03Z</time>
      </trkpt>
      <trkpt lat="46.80695" lon="5.79482">
        <ele>565.5</ele>
        <time>2020-05-12T12:54:16Z</time>
      </trkpt>
      <trkpt lat="46.80694" lon="5.79475">
        <ele>564.6</ele>
        <time>2020-05-12T12:54:25Z</time>
      </trkpt>
      <trkpt lat="46.80687" lon="5.79463">
        <ele>563.3</ele>
        <time>2020-05-12T12:54:40Z</time>
      </trkpt>
      <trkpt lat="46.80684" lon="5.79458">
        <ele>562.9</ele>
        <time>2020-05-12T12:54:42Z</time>
      </trkpt>
      <trkpt lat="46.80678" lon="5.79444">
        <ele>560.8</ele>
        <time>2020-05-12T12:54:57Z</time>
      </trkpt>
      <trkpt lat="46.80674" lon="5.79438">
        <ele>560.4</ele>
        <time>2020-05-12T12:55:01Z</time>
      </trkpt>
      <trkpt lat="46.80661" lon="5.79419">
        <ele>557.9</ele>
        <time>2020-05-12T12:55:17Z</time>
      </trkpt>
      <trkpt lat="46.80657" lon="5.79414">
        <ele>557.5</ele>
        <time>2020-05-12T12:55:20Z</time>
      </trkpt>
      <trkpt lat="46.80652" lon="5.7941">
        <ele>557</ele>
        <time>2020-05-12T12:55:24Z</time>
      </trkpt>
      <trkpt lat="46.80643" lon="5.79398">
        <ele>555.8</ele>
        <time>2020-05-12T12:55:49Z</time>
      </trkpt>
      <trkpt lat="46.80637" lon="5.79389">
        <ele>555.8</ele>
        <time>2020-05-12T12:55:51Z</time>
      </trkpt>
      <trkpt lat="46.80634" lon="5.79384">
        <ele>556</ele>
        <time>2020-05-12T12:55:55Z</time>
      </trkpt>
      <trkpt lat="46.80634" lon="5.79377">
        <ele>556</ele>
        <time>2020-05-12T12:56:10Z</time>
      </trkpt>
      <trkpt lat="46.8063" lon="5.79371">
        <ele>556.1</ele>
        <time>2020-05-12T12:56:12Z</time>
      </trkpt>
      <trkpt lat="46.80626" lon="5.79362">
        <ele>556.1</ele>
        <time>2020-05-12T12:56:16Z</time>
      </trkpt>
      <trkpt lat="46.80621" lon="5.79355">
        <ele>556.1</ele>
        <time>2020-05-12T12:56:18Z</time>
      </trkpt>
      <trkpt lat="46.80615" lon="5.79338">
        <ele>556.9</ele>
        <time>2020-05-12T12:56:38Z</time>
      </trkpt>
      <trkpt lat="46.80617" lon="5.7933">
        <ele>557.2</ele>
        <time>2020-05-12T12:56:42Z</time>
      </trkpt>
      <trkpt lat="46.80619" lon="5.79324">
        <ele>557.4</ele>
        <time>2020-05-12T12:56:44Z</time>
      </trkpt>
      <trkpt lat="46.8062" lon="5.79317">
        <ele>557.9</ele>
        <time>2020-05-12T12:56:48Z</time>
      </trkpt>
      <trkpt lat="46.80622" lon="5.79308">
        <ele>558.7</ele>
        <time>2020-05-12T12:56:59Z</time>
      </trkpt>
      <trkpt lat="46.80624" lon="5.79302">
        <ele>558.9</ele>
        <time>2020-05-12T12:57:06Z</time>
      </trkpt>
      <trkpt lat="46.80627" lon="5.79296">
        <ele>559.5</ele>
        <time>2020-05-12T12:57:13Z</time>
      </trkpt>
      <trkpt lat="46.80629" lon="5.7929">
        <ele>559.9</ele>
        <time>2020-05-12T12:57:16Z</time>
      </trkpt>
      <trkpt lat="46.80629" lon="5.79281">
        <ele>560.3</ele>
        <time>2020-05-12T12:57:19Z</time>
      </trkpt>
      <trkpt lat="46.80629" lon="5.79274">
        <ele>561.6</ele>
        <time>2020-05-12T12:57:29Z</time>
      </trkpt>
      <trkpt lat="46.8063" lon="5.79265">
        <ele>562</ele>
        <time>2020-05-12T12:57:33Z</time>
      </trkpt>
      <trkpt lat="46.80632" lon="5.79257">
        <ele>562.2</ele>
        <time>2020-05-12T12:57:37Z</time>
      </trkpt>
      <trkpt lat="46.80633" lon="5.7925">
        <ele>562.3</ele>
        <time>2020-05-12T12:57:40Z</time>
      </trkpt>
      <trkpt lat="46.8062" lon="5.79245">
        <ele>563.7</ele>
        <time>2020-05-12T12:58:23Z</time>
      </trkpt>
      <trkpt lat="46.80615" lon="5.7924">
        <ele>563.4</ele>
        <time>2020-05-12T12:58:28Z</time>
      </trkpt>
      <trkpt lat="46.80612" lon="5.79235">
        <ele>562.7</ele>
        <time>2020-05-12T12:58:34Z</time>
      </trkpt>
      <trkpt lat="46.80614" lon="5.79231">
        <ele>560.7</ele>
        <time>2020-05-12T12:59:33Z</time>
      </trkpt>
      <trkpt lat="46.80618" lon="5.79234">
        <ele>560.6</ele>
        <time>2020-05-12T12:59:36Z</time>
      </trkpt>
      <trkpt lat="46.80626" lon="5.79224">
        <ele>558.8</ele>
        <time>2020-05-12T13:00:20Z</time>
      </trkpt>
      <trkpt lat="46.80629" lon="5.79218">
        <ele>559.1</ele>
        <time>2020-05-12T13:00:22Z</time>
      </trkpt>
      <trkpt lat="46.80631" lon="5.79212">
        <ele>559.5</ele>
        <time>2020-05-12T13:00:24Z</time>
      </trkpt>
      <trkpt lat="46.80633" lon="5.79205">
        <ele>560.7</ele>
        <time>2020-05-12T13:00:30Z</time>
      </trkpt>
      <trkpt lat="46.80633" lon="5.79198">
        <ele>563</ele>
        <time>2020-05-12T13:00:39Z</time>
      </trkpt>
      <trkpt lat="46.80633" lon="5.79191">
        <ele>564.7</ele>
        <time>2020-05-12T13:00:49Z</time>
      </trkpt>
      <trkpt lat="46.80634" lon="5.79184">
        <ele>565.1</ele>
        <time>2020-05-12T13:00:54Z</time>
      </trkpt>
      <trkpt lat="46.80637" lon="5.79156">
        <ele>567.2</ele>
        <time>2020-05-12T13:01:17Z</time>
      </trkpt>
      <trkpt lat="46.80639" lon="5.79149">
        <ele>567.1</ele>
        <time>2020-05-12T13:01:25Z</time>
      </trkpt>
      <trkpt lat="46.80644" lon="5.79139">
        <ele>566.3</ele>
        <time>2020-05-12T13:01:45Z</time>
      </trkpt>
      <trkpt lat="46.80647" lon="5.79133">
        <ele>566</ele>
        <time>2020-05-12T13:01:48Z</time>
      </trkpt>
      <trkpt lat="46.80649" lon="5.79126">
        <ele>565.3</ele>
        <time>2020-05-12T13:01:54Z</time>
      </trkpt>
      <trkpt lat="46.80652" lon="5.7912">
        <ele>564.8</ele>
        <time>2020-05-12T13:01:59Z</time>
      </trkpt>
      <trkpt lat="46.80655" lon="5.79115">
        <ele>564.3</ele>
        <time>2020-05-12T13:02:05Z</time>
      </trkpt>
      <trkpt lat="46.80651" lon="5.79108">
        <ele>563.9</ele>
        <time>2020-05-12T13:02:38Z</time>
      </trkpt>
      <trkpt lat="46.80631" lon="5.7909">
        <ele>560</ele>
        <time>2020-05-12T13:03:41Z</time>
      </trkpt>
      <trkpt lat="46.80626" lon="5.79088">
        <ele>559.9</ele>
        <time>2020-05-12T13:03:43Z</time>
      </trkpt>
      <trkpt lat="46.80615" lon="5.79085">
        <ele>559.8</ele>
        <time>2020-05-12T13:03:55Z</time>
      </trkpt>
      <trkpt lat="46.80611" lon="5.79085">
        <ele>560.2</ele>
        <time>2020-05-12T13:04:01Z</time>
      </trkpt>
      <trkpt lat="46.80606" lon="5.79076">
        <ele>562.7</ele>
        <time>2020-05-12T13:04:28Z</time>
      </trkpt>
      <trkpt lat="46.80606" lon="5.79069">
        <ele>563</ele>
        <time>2020-05-12T13:04:33Z</time>
      </trkpt>
      <trkpt lat="46.80605" lon="5.79061">
        <ele>563.1</ele>
        <time>2020-05-12T13:04:36Z</time>
      </trkpt>
      <trkpt lat="46.80605" lon="5.79055">
        <ele>563.2</ele>
        <time>2020-05-12T13:04:44Z</time>
      </trkpt>
      <trkpt lat="46.80601" lon="5.79048">
        <ele>563.9</ele>
        <time>2020-05-12T13:05:15Z</time>
      </trkpt>
      <trkpt lat="46.806" lon="5.79025">
        <ele>566</ele>
        <time>2020-05-12T13:05:35Z</time>
      </trkpt>
      <trkpt lat="46.806" lon="5.79014">
        <ele>566.5</ele>
        <time>2020-05-12T13:05:44Z</time>
      </trkpt>
      <trkpt lat="46.806" lon="5.79007">
        <ele>566.2</ele>
        <time>2020-05-12T13:05:48Z</time>
      </trkpt>
      <trkpt lat="46.80601" lon="5.79001">
        <ele>565.9</ele>
        <time>2020-05-12T13:05:53Z</time>
      </trkpt>
      <trkpt lat="46.80602" lon="5.78994">
        <ele>565.4</ele>
        <time>2020-05-12T13:06:00Z</time>
      </trkpt>
      <trkpt lat="46.80603" lon="5.78988">
        <ele>565.2</ele>
        <time>2020-05-12T13:06:04Z</time>
      </trkpt>
      <trkpt lat="46.80603" lon="5.78981">
        <ele>565.2</ele>
        <time>2020-05-12T13:06:09Z</time>
      </trkpt>
      <trkpt lat="46.80602" lon="5.78974">
        <ele>565</ele>
        <time>2020-05-12T13:06:15Z</time>
      </trkpt>
      <trkpt lat="46.80601" lon="5.78967">
        <ele>564.7</ele>
        <time>2020-05-12T13:06:21Z</time>
      </trkpt>
      <trkpt lat="46.80601" lon="5.7896">
        <ele>564.3</ele>
        <time>2020-05-12T13:06:27Z</time>
      </trkpt>
      <trkpt lat="46.80605" lon="5.78951">
        <ele>563.7</ele>
        <time>2020-05-12T13:07:24Z</time>
      </trkpt>
      <trkpt lat="46.8061" lon="5.78947">
        <ele>563.9</ele>
        <time>2020-05-12T13:07:27Z</time>
      </trkpt>
      <trkpt lat="46.80615" lon="5.78943">
        <ele>564.4</ele>
        <time>2020-05-12T13:07:32Z</time>
      </trkpt>
      <trkpt lat="46.8062" lon="5.78941">
        <ele>565.2</ele>
        <time>2020-05-12T13:07:39Z</time>
      </trkpt>
      <trkpt lat="46.80625" lon="5.7894">
        <ele>565.5</ele>
        <time>2020-05-12T13:07:45Z</time>
      </trkpt>
      <trkpt lat="46.80629" lon="5.7894">
        <ele>565.5</ele>
        <time>2020-05-12T13:07:53Z</time>
      </trkpt>
      <trkpt lat="46.80634" lon="5.7894">
        <ele>565.6</ele>
        <time>2020-05-12T13:08:03Z</time>
      </trkpt>
      <trkpt lat="46.80639" lon="5.7894">
        <ele>565.8</ele>
        <time>2020-05-12T13:08:07Z</time>
      </trkpt>
      <trkpt lat="46.80703" lon="5.78944">
        <ele>564.5</ele>
        <time>2020-05-12T13:09:18Z</time>
      </trkpt>
      <trkpt lat="46.8071" lon="5.78945">
        <ele>564.5</ele>
        <time>2020-05-12T13:09:21Z</time>
      </trkpt>
      <trkpt lat="46.80715" lon="5.78946">
        <ele>564.4</ele>
        <time>2020-05-12T13:09:23Z</time>
      </trkpt>
      <trkpt lat="46.8072" lon="5.78948">
        <ele>564.4</ele>
        <time>2020-05-12T13:09:25Z</time>
      </trkpt>
      <trkpt lat="46.80726" lon="5.78949">
        <ele>564.5</ele>
        <time>2020-05-12T13:09:29Z</time>
      </trkpt>
      <trkpt lat="46.80731" lon="5.78948">
        <ele>564.7</ele>
        <time>2020-05-12T13:09:35Z</time>
      </trkpt>
      <trkpt lat="46.80736" lon="5.78951">
        <ele>565</ele>
        <time>2020-05-12T13:09:40Z</time>
      </trkpt>
      <trkpt lat="46.80741" lon="5.78952">
        <ele>565.6</ele>
        <time>2020-05-12T13:09:45Z</time>
      </trkpt>
      <trkpt lat="46.80746" lon="5.78951">
        <ele>566.1</ele>
        <time>2020-05-12T13:09:49Z</time>
      </trkpt>
      <trkpt lat="46.8075" lon="5.78949">
        <ele>566.6</ele>
        <time>2020-05-12T13:09:53Z</time>
      </trkpt>
      <trkpt lat="46.80755" lon="5.78944">
        <ele>566.9</ele>
        <time>2020-05-12T13:09:57Z</time>
      </trkpt>
      <trkpt lat="46.80759" lon="5.78939">
        <ele>566.9</ele>
        <time>2020-05-12T13:10:02Z</time>
      </trkpt>
      <trkpt lat="46.80763" lon="5.78935">
        <ele>566.6</ele>
        <time>2020-05-12T13:10:08Z</time>
      </trkpt>
      <trkpt lat="46.80766" lon="5.7893">
        <ele>566.3</ele>
        <time>2020-05-12T13:10:13Z</time>
      </trkpt>
      <trkpt lat="46.8077" lon="5.78924">
        <ele>566.2</ele>
        <time>2020-05-12T13:10:17Z</time>
      </trkpt>
      <trkpt lat="46.80773" lon="5.78917">
        <ele>566.1</ele>
        <time>2020-05-12T13:10:21Z</time>
      </trkpt>
      <trkpt lat="46.80776" lon="5.78911">
        <ele>565.9</ele>
        <time>2020-05-12T13:10:26Z</time>
      </trkpt>
      <trkpt lat="46.80785" lon="5.78896">
        <ele>567.1</ele>
        <time>2020-05-12T13:10:54Z</time>
      </trkpt>
      <trkpt lat="46.80789" lon="5.78894">
        <ele>568.1</ele>
        <time>2020-05-12T13:10:59Z</time>
      </trkpt>
      <trkpt lat="46.80794" lon="5.78892">
        <ele>569</ele>
        <time>2020-05-12T13:11:04Z</time>
      </trkpt>
      <trkpt lat="46.80799" lon="5.78888">
        <ele>569.9</ele>
        <time>2020-05-12T13:11:13Z</time>
      </trkpt>
      <trkpt lat="46.80803" lon="5.78883">
        <ele>570.3</ele>
        <time>2020-05-12T13:11:19Z</time>
      </trkpt>
      <trkpt lat="46.80807" lon="5.78877">
        <ele>570.4</ele>
        <time>2020-05-12T13:11:24Z</time>
      </trkpt>
      <trkpt lat="46.80811" lon="5.78872">
        <ele>570.2</ele>
        <time>2020-05-12T13:11:29Z</time>
      </trkpt>
      <trkpt lat="46.80815" lon="5.78868">
        <ele>569.9</ele>
        <time>2020-05-12T13:11:33Z</time>
      </trkpt>
      <trkpt lat="46.80819" lon="5.78862">
        <ele>569.2</ele>
        <time>2020-05-12T13:11:39Z</time>
      </trkpt>
      <trkpt lat="46.80823" lon="5.7886">
        <ele>568.4</ele>
        <time>2020-05-12T13:11:44Z</time>
      </trkpt>
      <trkpt lat="46.80828" lon="5.78859">
        <ele>567.4</ele>
        <time>2020-05-12T13:11:50Z</time>
      </trkpt>
      <trkpt lat="46.80833" lon="5.78858">
        <ele>566.2</ele>
        <time>2020-05-12T13:11:57Z</time>
      </trkpt>
      <trkpt lat="46.80838" lon="5.7886">
        <ele>565.9</ele>
        <time>2020-05-12T13:11:59Z</time>
      </trkpt>
      <trkpt lat="46.80842" lon="5.7886">
        <ele>565.4</ele>
        <time>2020-05-12T13:12:03Z</time>
      </trkpt>
      <trkpt lat="46.80847" lon="5.78856">
        <ele>564.8</ele>
        <time>2020-05-12T13:12:07Z</time>
      </trkpt>
      <trkpt lat="46.80851" lon="5.78852">
        <ele>564.4</ele>
        <time>2020-05-12T13:12:10Z</time>
      </trkpt>
      <trkpt lat="46.80854" lon="5.78847">
        <ele>563.9</ele>
        <time>2020-05-12T13:12:14Z</time>
      </trkpt>
      <trkpt lat="46.80855" lon="5.7884">
        <ele>562.7</ele>
        <time>2020-05-12T13:12:22Z</time>
      </trkpt>
      <trkpt lat="46.80854" lon="5.78832">
        <ele>561.3</ele>
        <time>2020-05-12T13:12:30Z</time>
      </trkpt>
      <trkpt lat="46.80854" lon="5.78825">
        <ele>560.6</ele>
        <time>2020-05-12T13:12:36Z</time>
      </trkpt>
      <trkpt lat="46.8085" lon="5.78807">
        <ele>559.8</ele>
        <time>2020-05-12T13:12:50Z</time>
      </trkpt>
      <trkpt lat="46.80849" lon="5.788">
        <ele>560</ele>
        <time>2020-05-12T13:12:56Z</time>
      </trkpt>
      <trkpt lat="46.80849" lon="5.78792">
        <ele>561.1</ele>
        <time>2020-05-12T13:13:05Z</time>
      </trkpt>
      <trkpt lat="46.80849" lon="5.78785">
        <ele>561.8</ele>
        <time>2020-05-12T13:13:09Z</time>
      </trkpt>
      <trkpt lat="46.80849" lon="5.78765">
        <ele>563.8</ele>
        <time>2020-05-12T13:13:21Z</time>
      </trkpt>
      <trkpt lat="46.80849" lon="5.78758">
        <ele>564.2</ele>
        <time>2020-05-12T13:13:26Z</time>
      </trkpt>
      <trkpt lat="46.80848" lon="5.7875">
        <ele>564.8</ele>
        <time>2020-05-12T13:13:30Z</time>
      </trkpt>
      <trkpt lat="46.8085" lon="5.78744">
        <ele>565.8</ele>
        <time>2020-05-12T13:13:41Z</time>
      </trkpt>
      <trkpt lat="46.80854" lon="5.7874">
        <ele>565.5</ele>
        <time>2020-05-12T13:13:49Z</time>
      </trkpt>
      <trkpt lat="46.80857" lon="5.78726">
        <ele>564.9</ele>
        <time>2020-05-12T13:14:00Z</time>
      </trkpt>
      <trkpt lat="46.80862" lon="5.78712">
        <ele>565.6</ele>
        <time>2020-05-12T13:14:19Z</time>
      </trkpt>
      <trkpt lat="46.80863" lon="5.78705">
        <ele>565.7</ele>
        <time>2020-05-12T13:14:21Z</time>
      </trkpt>
      <trkpt lat="46.80864" lon="5.78698">
        <ele>565.9</ele>
        <time>2020-05-12T13:14:29Z</time>
      </trkpt>
      <trkpt lat="46.80863" lon="5.78682">
        <ele>566.8</ele>
        <time>2020-05-12T13:14:39Z</time>
      </trkpt>
      <trkpt lat="46.80861" lon="5.78674">
        <ele>567.1</ele>
        <time>2020-05-12T13:14:43Z</time>
      </trkpt>
      <trkpt lat="46.80862" lon="5.78666">
        <ele>567.3</ele>
        <time>2020-05-12T13:14:48Z</time>
      </trkpt>
      <trkpt lat="46.80859" lon="5.78633">
        <ele>566.7</ele>
        <time>2020-05-12T13:15:19Z</time>
      </trkpt>
      <trkpt lat="46.80861" lon="5.78627">
        <ele>566.7</ele>
        <time>2020-05-12T13:15:22Z</time>
      </trkpt>
      <trkpt lat="46.80861" lon="5.7862">
        <ele>566.5</ele>
        <time>2020-05-12T13:15:30Z</time>
      </trkpt>
      <trkpt lat="46.80862" lon="5.78612">
        <ele>566.4</ele>
        <time>2020-05-12T13:15:32Z</time>
      </trkpt>
      <trkpt lat="46.80864" lon="5.78595">
        <ele>565.7</ele>
        <time>2020-05-12T13:15:50Z</time>
      </trkpt>
      <trkpt lat="46.80865" lon="5.78588">
        <ele>565.7</ele>
        <time>2020-05-12T13:15:56Z</time>
      </trkpt>
      <trkpt lat="46.80866" lon="5.78581">
        <ele>565.7</ele>
        <time>2020-05-12T13:16:01Z</time>
      </trkpt>
      <trkpt lat="46.80868" lon="5.78575">
        <ele>565.5</ele>
        <time>2020-05-12T13:16:06Z</time>
      </trkpt>
      <trkpt lat="46.80877" lon="5.78556">
        <ele>560.3</ele>
        <time>2020-05-12T13:19:12Z</time>
      </trkpt>
      <trkpt lat="46.80881" lon="5.78551">
        <ele>560.4</ele>
        <time>2020-05-12T13:19:17Z</time>
      </trkpt>
      <trkpt lat="46.80884" lon="5.78546">
        <ele>561</ele>
        <time>2020-05-12T13:19:25Z</time>
      </trkpt>
      <trkpt lat="46.80888" lon="5.78542">
        <ele>561.4</ele>
        <time>2020-05-12T13:19:32Z</time>
      </trkpt>
      <trkpt lat="46.80895" lon="5.78534">
        <ele>561</ele>
        <time>2020-05-12T13:19:57Z</time>
      </trkpt>
      <trkpt lat="46.80899" lon="5.78532">
        <ele>560.9</ele>
        <time>2020-05-12T13:20:02Z</time>
      </trkpt>
      <trkpt lat="46.80904" lon="5.7853">
        <ele>560.8</ele>
        <time>2020-05-12T13:20:04Z</time>
      </trkpt>
      <trkpt lat="46.80923" lon="5.78502">
        <ele>560.4</ele>
        <time>2020-05-12T13:20:31Z</time>
      </trkpt>
      <trkpt lat="46.80925" lon="5.78497">
        <ele>560.2</ele>
        <time>2020-05-12T13:20:34Z</time>
      </trkpt>
      <trkpt lat="46.80943" lon="5.78467">
        <ele>558.4</ele>
        <time>2020-05-12T13:21:24Z</time>
      </trkpt>
      <trkpt lat="46.80944" lon="5.7846">
        <ele>558.2</ele>
        <time>2020-05-12T13:21:28Z</time>
      </trkpt>
      <trkpt lat="46.80946" lon="5.78453">
        <ele>558</ele>
        <time>2020-05-12T13:21:31Z</time>
      </trkpt>
      <trkpt lat="46.80954" lon="5.78445">
        <ele>556.6</ele>
        <time>2020-05-12T13:21:42Z</time>
      </trkpt>
      <trkpt lat="46.80956" lon="5.7845">
        <ele>553.6</ele>
        <time>2020-05-12T13:21:54Z</time>
      </trkpt>
      <trkpt lat="46.80972" lon="5.78456">
        <ele>552.3</ele>
        <time>2020-05-12T13:22:07Z</time>
      </trkpt>
      <trkpt lat="46.80991" lon="5.78453">
        <ele>548.8</ele>
        <time>2020-05-12T13:22:31Z</time>
      </trkpt>
      <trkpt lat="46.81033" lon="5.78391">
        <ele>555.3</ele>
        <time>2020-05-12T13:23:38Z</time>
      </trkpt>
      <trkpt lat="46.81035" lon="5.78385">
        <ele>555.4</ele>
        <time>2020-05-12T13:23:45Z</time>
      </trkpt>
      <trkpt lat="46.81038" lon="5.78369">
        <ele>555.6</ele>
        <time>2020-05-12T13:23:54Z</time>
      </trkpt>
      <trkpt lat="46.8104" lon="5.78357">
        <ele>554.4</ele>
        <time>2020-05-12T13:24:07Z</time>
      </trkpt>
      <trkpt lat="46.81041" lon="5.7835">
        <ele>553.5</ele>
        <time>2020-05-12T13:24:12Z</time>
      </trkpt>
      <trkpt lat="46.8104" lon="5.78343">
        <ele>552.7</ele>
        <time>2020-05-12T13:24:17Z</time>
      </trkpt>
      <trkpt lat="46.81042" lon="5.78336">
        <ele>552.3</ele>
        <time>2020-05-12T13:24:22Z</time>
      </trkpt>
      <trkpt lat="46.81042" lon="5.7833">
        <ele>552</ele>
        <time>2020-05-12T13:24:25Z</time>
      </trkpt>
      <trkpt lat="46.81043" lon="5.78322">
        <ele>551.7</ele>
        <time>2020-05-12T13:24:31Z</time>
      </trkpt>
      <trkpt lat="46.81045" lon="5.78308">
        <ele>551.6</ele>
        <time>2020-05-12T13:24:38Z</time>
      </trkpt>
      <trkpt lat="46.81046" lon="5.78301">
        <ele>552.1</ele>
        <time>2020-05-12T13:24:43Z</time>
      </trkpt>
      <trkpt lat="46.81045" lon="5.78286">
        <ele>553.6</ele>
        <time>2020-05-12T13:25:08Z</time>
      </trkpt>
      <trkpt lat="46.81051" lon="5.78243">
        <ele>555.5</ele>
        <time>2020-05-12T13:25:42Z</time>
      </trkpt>
      <trkpt lat="46.8105" lon="5.78236">
        <ele>555.9</ele>
        <time>2020-05-12T13:25:46Z</time>
      </trkpt>
      <trkpt lat="46.81051" lon="5.78228">
        <ele>556.1</ele>
        <time>2020-05-12T13:25:49Z</time>
      </trkpt>
      <trkpt lat="46.81053" lon="5.78221">
        <ele>556.3</ele>
        <time>2020-05-12T13:25:53Z</time>
      </trkpt>
      <trkpt lat="46.81062" lon="5.78208">
        <ele>556.3</ele>
        <time>2020-05-12T13:26:13Z</time>
      </trkpt>
      <trkpt lat="46.8107" lon="5.78164">
        <ele>558.5</ele>
        <time>2020-05-12T13:26:52Z</time>
      </trkpt>
      <trkpt lat="46.81073" lon="5.78157">
        <ele>558.4</ele>
        <time>2020-05-12T13:26:54Z</time>
      </trkpt>
      <trkpt lat="46.81076" lon="5.78152">
        <ele>558.1</ele>
        <time>2020-05-12T13:26:58Z</time>
      </trkpt>
      <trkpt lat="46.81081" lon="5.78119">
        <ele>558.9</ele>
        <time>2020-05-12T13:27:26Z</time>
      </trkpt>
      <trkpt lat="46.81084" lon="5.78105">
        <ele>559.5</ele>
        <time>2020-05-12T13:27:40Z</time>
      </trkpt>
      <trkpt lat="46.81084" lon="5.78096">
        <ele>559.7</ele>
        <time>2020-05-12T13:27:42Z</time>
      </trkpt>
      <trkpt lat="46.81085" lon="5.78089">
        <ele>560</ele>
        <time>2020-05-12T13:27:44Z</time>
      </trkpt>
      <trkpt lat="46.81087" lon="5.78081">
        <ele>561</ele>
        <time>2020-05-12T13:27:51Z</time>
      </trkpt>
      <trkpt lat="46.8109" lon="5.78075">
        <ele>561.6</ele>
        <time>2020-05-12T13:27:55Z</time>
      </trkpt>
      <trkpt lat="46.81091" lon="5.78068">
        <ele>562.6</ele>
        <time>2020-05-12T13:28:01Z</time>
      </trkpt>
      <trkpt lat="46.81093" lon="5.78062">
        <ele>564</ele>
        <time>2020-05-12T13:28:09Z</time>
      </trkpt>
      <trkpt lat="46.81111" lon="5.78008">
        <ele>563</ele>
        <time>2020-05-12T13:29:00Z</time>
      </trkpt>
      <trkpt lat="46.81113" lon="5.77984">
        <ele>563.5</ele>
        <time>2020-05-12T13:29:24Z</time>
      </trkpt>
      <trkpt lat="46.81115" lon="5.77978">
        <ele>563.4</ele>
        <time>2020-05-12T13:29:26Z</time>
      </trkpt>
      <trkpt lat="46.81117" lon="5.77971">
        <ele>563.7</ele>
        <time>2020-05-12T13:29:30Z</time>
      </trkpt>
      <trkpt lat="46.81119" lon="5.77962">
        <ele>565.2</ele>
        <time>2020-05-12T13:29:40Z</time>
      </trkpt>
      <trkpt lat="46.81121" lon="5.77955">
        <ele>565.8</ele>
        <time>2020-05-12T13:29:42Z</time>
      </trkpt>
      <trkpt lat="46.81124" lon="5.77946">
        <ele>566.3</ele>
        <time>2020-05-12T13:29:44Z</time>
      </trkpt>
      <trkpt lat="46.81124" lon="5.77938">
        <ele>567.6</ele>
        <time>2020-05-12T13:29:49Z</time>
      </trkpt>
      <trkpt lat="46.81124" lon="5.7793">
        <ele>568.4</ele>
        <time>2020-05-12T13:29:52Z</time>
      </trkpt>
      <trkpt lat="46.8113" lon="5.77883">
        <ele>571.5</ele>
        <time>2020-05-12T13:30:30Z</time>
      </trkpt>
      <trkpt lat="46.81131" lon="5.77872">
        <ele>571.9</ele>
        <time>2020-05-12T13:30:46Z</time>
      </trkpt>
      <trkpt lat="46.8113" lon="5.77862">
        <ele>571.9</ele>
        <time>2020-05-12T13:30:48Z</time>
      </trkpt>
      <trkpt lat="46.81131" lon="5.77853">
        <ele>572</ele>
        <time>2020-05-12T13:30:50Z</time>
      </trkpt>
      <trkpt lat="46.81131" lon="5.77845">
        <ele>572.1</ele>
        <time>2020-05-12T13:30:55Z</time>
      </trkpt>
      <trkpt lat="46.81155" lon="5.7783">
        <ele>570.8</ele>
        <time>2020-05-12T13:31:36Z</time>
      </trkpt>
      <trkpt lat="46.8116" lon="5.77829">
        <ele>571.4</ele>
        <time>2020-05-12T13:31:43Z</time>
      </trkpt>
      <trkpt lat="46.81165" lon="5.77826">
        <ele>572.4</ele>
        <time>2020-05-12T13:31:54Z</time>
      </trkpt>
      <trkpt lat="46.8117" lon="5.77825">
        <ele>572.6</ele>
        <time>2020-05-12T13:32:00Z</time>
      </trkpt>
      <trkpt lat="46.81175" lon="5.77823">
        <ele>572.7</ele>
        <time>2020-05-12T13:32:04Z</time>
      </trkpt>
      <trkpt lat="46.8118" lon="5.77819">
        <ele>572.8</ele>
        <time>2020-05-12T13:32:08Z</time>
      </trkpt>
      <trkpt lat="46.81185" lon="5.77817">
        <ele>572.8</ele>
        <time>2020-05-12T13:32:12Z</time>
      </trkpt>
      <trkpt lat="46.81189" lon="5.77816">
        <ele>573.3</ele>
        <time>2020-05-12T13:32:17Z</time>
      </trkpt>
      <trkpt lat="46.81194" lon="5.77812">
        <ele>574.7</ele>
        <time>2020-05-12T13:32:25Z</time>
      </trkpt>
      <trkpt lat="46.81199" lon="5.77811">
        <ele>575.7</ele>
        <time>2020-05-12T13:32:31Z</time>
      </trkpt>
      <trkpt lat="46.81204" lon="5.77811">
        <ele>576.5</ele>
        <time>2020-05-12T13:32:36Z</time>
      </trkpt>
      <trkpt lat="46.81209" lon="5.77811">
        <ele>577.2</ele>
        <time>2020-05-12T13:32:42Z</time>
      </trkpt>
      <trkpt lat="46.81214" lon="5.7781">
        <ele>577.6</ele>
        <time>2020-05-12T13:32:47Z</time>
      </trkpt>
      <trkpt lat="46.81219" lon="5.77809">
        <ele>577.8</ele>
        <time>2020-05-12T13:32:51Z</time>
      </trkpt>
      <trkpt lat="46.81224" lon="5.77805">
        <ele>578.1</ele>
        <time>2020-05-12T13:32:55Z</time>
      </trkpt>
      <trkpt lat="46.81229" lon="5.77803">
        <ele>578.6</ele>
        <time>2020-05-12T13:32:59Z</time>
      </trkpt>
      <trkpt lat="46.81234" lon="5.77803">
        <ele>579.1</ele>
        <time>2020-05-12T13:33:03Z</time>
      </trkpt>
      <trkpt lat="46.8124" lon="5.77802">
        <ele>579.5</ele>
        <time>2020-05-12T13:33:08Z</time>
      </trkpt>
      <trkpt lat="46.81245" lon="5.778">
        <ele>579.8</ele>
        <time>2020-05-12T13:33:12Z</time>
      </trkpt>
      <trkpt lat="46.8125" lon="5.77801">
        <ele>579.5</ele>
        <time>2020-05-12T13:33:20Z</time>
      </trkpt>
      <trkpt lat="46.81255" lon="5.77801">
        <ele>578.6</ele>
        <time>2020-05-12T13:33:26Z</time>
      </trkpt>
      <trkpt lat="46.81261" lon="5.77801">
        <ele>577.7</ele>
        <time>2020-05-12T13:33:33Z</time>
      </trkpt>
      <trkpt lat="46.81266" lon="5.77801">
        <ele>577.3</ele>
        <time>2020-05-12T13:33:37Z</time>
      </trkpt>
      <trkpt lat="46.81271" lon="5.77801">
        <ele>577</ele>
        <time>2020-05-12T13:33:44Z</time>
      </trkpt>
      <trkpt lat="46.81276" lon="5.77802">
        <ele>577</ele>
        <time>2020-05-12T13:33:49Z</time>
      </trkpt>
      <trkpt lat="46.81281" lon="5.77803">
        <ele>576.9</ele>
        <time>2020-05-12T13:33:55Z</time>
      </trkpt>
      <trkpt lat="46.81286" lon="5.77803">
        <ele>576.8</ele>
        <time>2020-05-12T13:33:59Z</time>
      </trkpt>
      <trkpt lat="46.81291" lon="5.77804">
        <ele>576.5</ele>
        <time>2020-05-12T13:34:03Z</time>
      </trkpt>
      <trkpt lat="46.8131" lon="5.778">
        <ele>576.7</ele>
        <time>2020-05-12T13:34:18Z</time>
      </trkpt>
      <trkpt lat="46.81324" lon="5.778">
        <ele>577.6</ele>
        <time>2020-05-12T13:34:34Z</time>
      </trkpt>
      <trkpt lat="46.81328" lon="5.77802">
        <ele>577.7</ele>
        <time>2020-05-12T13:34:38Z</time>
      </trkpt>
      <trkpt lat="46.81333" lon="5.77803">
        <ele>577.7</ele>
        <time>2020-05-12T13:34:40Z</time>
      </trkpt>
      <trkpt lat="46.81339" lon="5.77803">
        <ele>577.8</ele>
        <time>2020-05-12T13:34:42Z</time>
      </trkpt>
      <trkpt lat="46.81344" lon="5.77804">
        <ele>577.8</ele>
        <time>2020-05-12T13:34:45Z</time>
      </trkpt>
      <trkpt lat="46.81349" lon="5.77805">
        <ele>577.9</ele>
        <time>2020-05-12T13:34:48Z</time>
      </trkpt>
      <trkpt lat="46.81355" lon="5.77807">
        <ele>578</ele>
        <time>2020-05-12T13:34:50Z</time>
      </trkpt>
      <trkpt lat="46.81359" lon="5.77809">
        <ele>578.2</ele>
        <time>2020-05-12T13:34:53Z</time>
      </trkpt>
      <trkpt lat="46.81364" lon="5.77812">
        <ele>578.4</ele>
        <time>2020-05-12T13:34:56Z</time>
      </trkpt>
      <trkpt lat="46.81374" lon="5.77812">
        <ele>579.6</ele>
        <time>2020-05-12T13:35:05Z</time>
      </trkpt>
      <trkpt lat="46.81378" lon="5.77812">
        <ele>579.6</ele>
        <time>2020-05-12T13:35:13Z</time>
      </trkpt>
      <trkpt lat="46.81384" lon="5.77812">
        <ele>578.9</ele>
        <time>2020-05-12T13:35:20Z</time>
      </trkpt>
      <trkpt lat="46.81388" lon="5.77812">
        <ele>578.5</ele>
        <time>2020-05-12T13:35:24Z</time>
      </trkpt>
      <trkpt lat="46.81393" lon="5.77809">
        <ele>577.7</ele>
        <time>2020-05-12T13:35:30Z</time>
      </trkpt>
      <trkpt lat="46.81398" lon="5.77808">
        <ele>577.3</ele>
        <time>2020-05-12T13:35:33Z</time>
      </trkpt>
      <trkpt lat="46.81402" lon="5.77808">
        <ele>576.7</ele>
        <time>2020-05-12T13:35:38Z</time>
      </trkpt>
      <trkpt lat="46.81407" lon="5.77805">
        <ele>576</ele>
        <time>2020-05-12T13:35:43Z</time>
      </trkpt>
      <trkpt lat="46.81413" lon="5.77803">
        <ele>574.4</ele>
        <time>2020-05-12T13:35:50Z</time>
      </trkpt>
      <trkpt lat="46.81419" lon="5.77803">
        <ele>573.5</ele>
        <time>2020-05-12T13:35:55Z</time>
      </trkpt>
      <trkpt lat="46.81425" lon="5.77803">
        <ele>573</ele>
        <time>2020-05-12T13:35:59Z</time>
      </trkpt>
      <trkpt lat="46.8143" lon="5.77803">
        <ele>572.3</ele>
        <time>2020-05-12T13:36:04Z</time>
      </trkpt>
      <trkpt lat="46.81435" lon="5.77804">
        <ele>571.5</ele>
        <time>2020-05-12T13:36:10Z</time>
      </trkpt>
      <trkpt lat="46.81439" lon="5.77804">
        <ele>570.7</ele>
        <time>2020-05-12T13:36:15Z</time>
      </trkpt>
      <trkpt lat="46.81444" lon="5.77805">
        <ele>569.8</ele>
        <time>2020-05-12T13:36:21Z</time>
      </trkpt>
      <trkpt lat="46.81457" lon="5.77804">
        <ele>568.5</ele>
        <time>2020-05-12T13:36:32Z</time>
      </trkpt>
      <trkpt lat="46.81461" lon="5.77803">
        <ele>568.4</ele>
        <time>2020-05-12T13:36:36Z</time>
      </trkpt>
      <trkpt lat="46.81466" lon="5.77803">
        <ele>568.4</ele>
        <time>2020-05-12T13:36:39Z</time>
      </trkpt>
      <trkpt lat="46.81471" lon="5.77803">
        <ele>568.5</ele>
        <time>2020-05-12T13:36:42Z</time>
      </trkpt>
      <trkpt lat="46.81476" lon="5.77802">
        <ele>568.6</ele>
        <time>2020-05-12T13:36:46Z</time>
      </trkpt>
      <trkpt lat="46.81481" lon="5.77802">
        <ele>569</ele>
        <time>2020-05-12T13:36:51Z</time>
      </trkpt>
      <trkpt lat="46.81485" lon="5.77798">
        <ele>569.7</ele>
        <time>2020-05-12T13:37:06Z</time>
      </trkpt>
      <trkpt lat="46.81487" lon="5.77792">
        <ele>569.9</ele>
        <time>2020-05-12T13:37:17Z</time>
      </trkpt>
      <trkpt lat="46.81489" lon="5.77784">
        <ele>569.9</ele>
        <time>2020-05-12T13:37:22Z</time>
      </trkpt>
      <trkpt lat="46.8149" lon="5.77777">
        <ele>569.9</ele>
        <time>2020-05-12T13:37:27Z</time>
      </trkpt>
      <trkpt lat="46.81492" lon="5.7777">
        <ele>570</ele>
        <time>2020-05-12T13:37:31Z</time>
      </trkpt>
      <trkpt lat="46.81495" lon="5.77764">
        <ele>569.9</ele>
        <time>2020-05-12T13:37:36Z</time>
      </trkpt>
      <trkpt lat="46.81495" lon="5.77757">
        <ele>570</ele>
        <time>2020-05-12T13:37:41Z</time>
      </trkpt>
      <trkpt lat="46.81493" lon="5.7775">
        <ele>570.1</ele>
        <time>2020-05-12T13:37:52Z</time>
      </trkpt>
      <trkpt lat="46.81496" lon="5.77744">
        <ele>569.8</ele>
        <time>2020-05-12T13:38:03Z</time>
      </trkpt>
      <trkpt lat="46.815" lon="5.7774">
        <ele>569.3</ele>
        <time>2020-05-12T13:38:08Z</time>
      </trkpt>
      <trkpt lat="46.81499" lon="5.77732">
        <ele>569</ele>
        <time>2020-05-12T13:38:14Z</time>
      </trkpt>
      <trkpt lat="46.81498" lon="5.77726">
        <ele>568.8</ele>
        <time>2020-05-12T13:38:20Z</time>
      </trkpt>
      <trkpt lat="46.81495" lon="5.7772">
        <ele>568.7</ele>
        <time>2020-05-12T13:38:26Z</time>
      </trkpt>
      <trkpt lat="46.81491" lon="5.77717">
        <ele>568.8</ele>
        <time>2020-05-12T13:38:30Z</time>
      </trkpt>
      <trkpt lat="46.81486" lon="5.77712">
        <ele>568.7</ele>
        <time>2020-05-12T13:38:34Z</time>
      </trkpt>
      <trkpt lat="46.81482" lon="5.77707">
        <ele>568.5</ele>
        <time>2020-05-12T13:38:39Z</time>
      </trkpt>
      <trkpt lat="46.81478" lon="5.77703">
        <ele>568.3</ele>
        <time>2020-05-12T13:38:43Z</time>
      </trkpt>
      <trkpt lat="46.81475" lon="5.77698">
        <ele>567.9</ele>
        <time>2020-05-12T13:38:50Z</time>
      </trkpt>
      <trkpt lat="46.81473" lon="5.77691">
        <ele>567.9</ele>
        <time>2020-05-12T13:38:56Z</time>
      </trkpt>
      <trkpt lat="46.81471" lon="5.77684">
        <ele>568</ele>
        <time>2020-05-12T13:39:02Z</time>
      </trkpt>
      <trkpt lat="46.81467" lon="5.77686">
        <ele>568.1</ele>
        <time>2020-05-12T13:39:14Z</time>
      </trkpt>
      <trkpt lat="46.81462" lon="5.77684">
        <ele>568</ele>
        <time>2020-05-12T13:39:20Z</time>
      </trkpt>
      <trkpt lat="46.81457" lon="5.77684">
        <ele>568</ele>
        <time>2020-05-12T13:39:24Z</time>
      </trkpt>
      <trkpt lat="46.81452" lon="5.77684">
        <ele>568.2</ele>
        <time>2020-05-12T13:39:32Z</time>
      </trkpt>
      <trkpt lat="46.81447" lon="5.77683">
        <ele>568.2</ele>
        <time>2020-05-12T13:39:37Z</time>
      </trkpt>
      <trkpt lat="46.81443" lon="5.7768">
        <ele>568.1</ele>
        <time>2020-05-12T13:39:44Z</time>
      </trkpt>
      <trkpt lat="46.81439" lon="5.77676">
        <ele>568.2</ele>
        <time>2020-05-12T13:39:50Z</time>
      </trkpt>
      <trkpt lat="46.81434" lon="5.77674">
        <ele>568.2</ele>
        <time>2020-05-12T13:39:55Z</time>
      </trkpt>
      <trkpt lat="46.8143" lon="5.77674">
        <ele>568.2</ele>
        <time>2020-05-12T13:40:00Z</time>
      </trkpt>
      <trkpt lat="46.81425" lon="5.77673">
        <ele>568.8</ele>
        <time>2020-05-12T13:40:10Z</time>
      </trkpt>
      <trkpt lat="46.81417" lon="5.77679">
        <ele>568.5</ele>
        <time>2020-05-12T13:40:47Z</time>
      </trkpt>
      <trkpt lat="46.81415" lon="5.77685">
        <ele>568.8</ele>
        <time>2020-05-12T13:40:54Z</time>
      </trkpt>
      <trkpt lat="46.81415" lon="5.77693">
        <ele>568.9</ele>
        <time>2020-05-12T13:41:01Z</time>
      </trkpt>
      <trkpt lat="46.81418" lon="5.77698">
        <ele>568.7</ele>
        <time>2020-05-12T13:41:06Z</time>
      </trkpt>
      <trkpt lat="46.81418" lon="5.77705">
        <ele>568.7</ele>
        <time>2020-05-12T13:41:13Z</time>
      </trkpt>
      <trkpt lat="46.81419" lon="5.77712">
        <ele>568.6</ele>
        <time>2020-05-12T13:41:19Z</time>
      </trkpt>
      <trkpt lat="46.81421" lon="5.77719">
        <ele>568.6</ele>
        <time>2020-05-12T13:41:24Z</time>
      </trkpt>
      <trkpt lat="46.81421" lon="5.77726">
        <ele>568.6</ele>
        <time>2020-05-12T13:41:30Z</time>
      </trkpt>
      <trkpt lat="46.8142" lon="5.77733">
        <ele>568.4</ele>
        <time>2020-05-12T13:41:37Z</time>
      </trkpt>
      <trkpt lat="46.81418" lon="5.77739">
        <ele>568.2</ele>
        <time>2020-05-12T13:41:42Z</time>
      </trkpt>
      <trkpt lat="46.81415" lon="5.77745">
        <ele>567.7</ele>
        <time>2020-05-12T13:41:51Z</time>
      </trkpt>
      <trkpt lat="46.81411" lon="5.77765">
        <ele>567</ele>
        <time>2020-05-12T13:42:05Z</time>
      </trkpt>
      <trkpt lat="46.81411" lon="5.77772">
        <ele>567.1</ele>
        <time>2020-05-12T13:42:09Z</time>
      </trkpt>
      <trkpt lat="46.81413" lon="5.77779">
        <ele>567.7</ele>
        <time>2020-05-12T13:42:17Z</time>
      </trkpt>
      <trkpt lat="46.81414" lon="5.77785">
        <ele>568</ele>
        <time>2020-05-12T13:42:34Z</time>
      </trkpt>
      <trkpt lat="46.81411" lon="5.7779">
        <ele>567.3</ele>
        <time>2020-05-12T13:42:49Z</time>
      </trkpt>
      <trkpt lat="46.81412" lon="5.77796">
        <ele>567</ele>
        <time>2020-05-12T13:43:04Z</time>
      </trkpt>
      <trkpt lat="46.81415" lon="5.77778">
        <ele>570.8</ele>
        <time>2020-05-12T13:43:59Z</time>
      </trkpt>
      <trkpt lat="46.81418" lon="5.77772">
        <ele>570.9</ele>
        <time>2020-05-12T13:44:05Z</time>
      </trkpt>
      <trkpt lat="46.81425" lon="5.77759">
        <ele>570.6</ele>
        <time>2020-05-12T13:44:43Z</time>
      </trkpt>
      <trkpt lat="46.81423" lon="5.77753">
        <ele>570.5</ele>
        <time>2020-05-12T13:44:45Z</time>
      </trkpt>
      <trkpt lat="46.81419" lon="5.77749">
        <ele>570.5</ele>
        <time>2020-05-12T13:44:47Z</time>
      </trkpt>
      <trkpt lat="46.8142" lon="5.77742">
        <ele>570.6</ele>
        <time>2020-05-12T13:44:51Z</time>
      </trkpt>
      <trkpt lat="46.81421" lon="5.77735">
        <ele>571.2</ele>
        <time>2020-05-12T13:44:56Z</time>
      </trkpt>
      <trkpt lat="46.81419" lon="5.77728">
        <ele>572.3</ele>
        <time>2020-05-12T13:45:02Z</time>
      </trkpt>
      <trkpt lat="46.81413" lon="5.77704">
        <ele>575.9</ele>
        <time>2020-05-12T13:45:34Z</time>
      </trkpt>
      <trkpt lat="46.81413" lon="5.77697">
        <ele>576.3</ele>
        <time>2020-05-12T13:45:44Z</time>
      </trkpt>
      <trkpt lat="46.81415" lon="5.7769">
        <ele>576.6</ele>
        <time>2020-05-12T13:45:47Z</time>
      </trkpt>
      <trkpt lat="46.81416" lon="5.77683">
        <ele>576.8</ele>
        <time>2020-05-12T13:45:50Z</time>
      </trkpt>
      <trkpt lat="46.81416" lon="5.77676">
        <ele>577.2</ele>
        <time>2020-05-12T13:45:55Z</time>
      </trkpt>
      <trkpt lat="46.81413" lon="5.7767">
        <ele>577.4</ele>
        <time>2020-05-12T13:46:00Z</time>
      </trkpt>
      <trkpt lat="46.81411" lon="5.77663">
        <ele>577</ele>
        <time>2020-05-12T13:46:08Z</time>
      </trkpt>
      <trkpt lat="46.81408" lon="5.77657">
        <ele>576.6</ele>
        <time>2020-05-12T13:46:13Z</time>
      </trkpt>
      <trkpt lat="46.81404" lon="5.77654">
        <ele>576.5</ele>
        <time>2020-05-12T13:46:16Z</time>
      </trkpt>
      <trkpt lat="46.8141" lon="5.77647">
        <ele>575.9</ele>
        <time>2020-05-12T13:46:47Z</time>
      </trkpt>
      <trkpt lat="46.81413" lon="5.77642">
        <ele>575.6</ele>
        <time>2020-05-12T13:46:58Z</time>
      </trkpt>
      <trkpt lat="46.81413" lon="5.77635">
        <ele>575.6</ele>
        <time>2020-05-12T13:47:07Z</time>
      </trkpt>
      <trkpt lat="46.81415" lon="5.77628">
        <ele>575.3</ele>
        <time>2020-05-12T13:47:13Z</time>
      </trkpt>
      <trkpt lat="46.81417" lon="5.77621">
        <ele>575.2</ele>
        <time>2020-05-12T13:47:20Z</time>
      </trkpt>
      <trkpt lat="46.81421" lon="5.77616">
        <ele>575.3</ele>
        <time>2020-05-12T13:47:25Z</time>
      </trkpt>
      <trkpt lat="46.81426" lon="5.77611">
        <ele>575.5</ele>
        <time>2020-05-12T13:47:29Z</time>
      </trkpt>
      <trkpt lat="46.81431" lon="5.77608">
        <ele>575.6</ele>
        <time>2020-05-12T13:47:33Z</time>
      </trkpt>
      <trkpt lat="46.81435" lon="5.77605">
        <ele>575.6</ele>
        <time>2020-05-12T13:47:36Z</time>
      </trkpt>
      <trkpt lat="46.8144" lon="5.77602">
        <ele>575.3</ele>
        <time>2020-05-12T13:47:41Z</time>
      </trkpt>
      <trkpt lat="46.81444" lon="5.77603">
        <ele>574.8</ele>
        <time>2020-05-12T13:47:50Z</time>
      </trkpt>
      <trkpt lat="46.81436" lon="5.77602">
        <ele>580.1</ele>
        <time>2020-05-12T13:51:02Z</time>
      </trkpt>
      <trkpt lat="46.81429" lon="5.77606">
        <ele>576.5</ele>
        <time>2020-05-12T13:55:27Z</time>
      </trkpt>
      <trkpt lat="46.81424" lon="5.77608">
        <ele>575.7</ele>
        <time>2020-05-12T13:55:35Z</time>
      </trkpt>
      <trkpt lat="46.81421" lon="5.77612">
        <ele>575.4</ele>
        <time>2020-05-12T13:55:39Z</time>
      </trkpt>
      <trkpt lat="46.81418" lon="5.77618">
        <ele>575.3</ele>
        <time>2020-05-12T13:55:44Z</time>
      </trkpt>
      <trkpt lat="46.81409" lon="5.77631">
        <ele>576.3</ele>
        <time>2020-05-12T13:56:01Z</time>
      </trkpt>
      <trkpt lat="46.81405" lon="5.7765">
        <ele>576.6</ele>
        <time>2020-05-12T13:56:19Z</time>
      </trkpt>
      <trkpt lat="46.81404" lon="5.77658">
        <ele>577.1</ele>
        <time>2020-05-12T13:56:27Z</time>
      </trkpt>
      <trkpt lat="46.81407" lon="5.77665">
        <ele>577.3</ele>
        <time>2020-05-12T13:56:29Z</time>
      </trkpt>
      <trkpt lat="46.81413" lon="5.77684">
        <ele>578</ele>
        <time>2020-05-12T13:56:42Z</time>
      </trkpt>
      <trkpt lat="46.81411" lon="5.7769">
        <ele>579</ele>
        <time>2020-05-12T13:56:53Z</time>
      </trkpt>
      <trkpt lat="46.81409" lon="5.77697">
        <ele>579.8</ele>
        <time>2020-05-12T13:57:00Z</time>
      </trkpt>
      <trkpt lat="46.81409" lon="5.77704">
        <ele>580.6</ele>
        <time>2020-05-12T13:57:07Z</time>
      </trkpt>
      <trkpt lat="46.81408" lon="5.77711">
        <ele>580.8</ele>
        <time>2020-05-12T13:57:09Z</time>
      </trkpt>
      <trkpt lat="46.81407" lon="5.77718">
        <ele>581</ele>
        <time>2020-05-12T13:57:12Z</time>
      </trkpt>
      <trkpt lat="46.8141" lon="5.77727">
        <ele>580.8</ele>
        <time>2020-05-12T13:57:18Z</time>
      </trkpt>
      <trkpt lat="46.81413" lon="5.77732">
        <ele>580.6</ele>
        <time>2020-05-12T13:57:20Z</time>
      </trkpt>
      <trkpt lat="46.81415" lon="5.77751">
        <ele>578.8</ele>
        <time>2020-05-12T13:57:33Z</time>
      </trkpt>
      <trkpt lat="46.81418" lon="5.77759">
        <ele>578.6</ele>
        <time>2020-05-12T13:57:36Z</time>
      </trkpt>
      <trkpt lat="46.81416" lon="5.77772">
        <ele>577.2</ele>
        <time>2020-05-12T13:57:50Z</time>
      </trkpt>
      <trkpt lat="46.81414" lon="5.77786">
        <ele>576</ele>
        <time>2020-05-12T13:58:27Z</time>
      </trkpt>
      <trkpt lat="46.81406" lon="5.77797">
        <ele>580.7</ele>
        <time>2020-05-12T13:59:26Z</time>
      </trkpt>
      <trkpt lat="46.81401" lon="5.778">
        <ele>580.9</ele>
        <time>2020-05-12T13:59:30Z</time>
      </trkpt>
      <trkpt lat="46.81388" lon="5.77803">
        <ele>580.2</ele>
        <time>2020-05-12T13:59:43Z</time>
      </trkpt>
      <trkpt lat="46.81383" lon="5.77806">
        <ele>580.1</ele>
        <time>2020-05-12T13:59:46Z</time>
      </trkpt>
      <trkpt lat="46.81378" lon="5.77809">
        <ele>579.9</ele>
        <time>2020-05-12T13:59:50Z</time>
      </trkpt>
      <trkpt lat="46.81361" lon="5.77811">
        <ele>580.1</ele>
        <time>2020-05-12T14:00:01Z</time>
      </trkpt>
      <trkpt lat="46.81346" lon="5.77813">
        <ele>581.8</ele>
        <time>2020-05-12T14:00:12Z</time>
      </trkpt>
      <trkpt lat="46.81341" lon="5.77813">
        <ele>583.3</ele>
        <time>2020-05-12T14:00:19Z</time>
      </trkpt>
      <trkpt lat="46.81335" lon="5.77812">
        <ele>584.9</ele>
        <time>2020-05-12T14:00:25Z</time>
      </trkpt>
      <trkpt lat="46.81331" lon="5.77813">
        <ele>586</ele>
        <time>2020-05-12T14:00:30Z</time>
      </trkpt>
      <trkpt lat="46.81313" lon="5.77816">
        <ele>589.6</ele>
        <time>2020-05-12T14:00:47Z</time>
      </trkpt>
      <trkpt lat="46.81308" lon="5.77816">
        <ele>589.7</ele>
        <time>2020-05-12T14:00:49Z</time>
      </trkpt>
      <trkpt lat="46.81301" lon="5.77818">
        <ele>589.9</ele>
        <time>2020-05-12T14:00:51Z</time>
      </trkpt>
      <trkpt lat="46.81282" lon="5.77821">
        <ele>590.6</ele>
        <time>2020-05-12T14:01:13Z</time>
      </trkpt>
      <trkpt lat="46.81277" lon="5.7782">
        <ele>590.4</ele>
        <time>2020-05-12T14:01:17Z</time>
      </trkpt>
      <trkpt lat="46.81271" lon="5.7782">
        <ele>590.2</ele>
        <time>2020-05-12T14:01:20Z</time>
      </trkpt>
      <trkpt lat="46.81257" lon="5.77818">
        <ele>589.2</ele>
        <time>2020-05-12T14:01:32Z</time>
      </trkpt>
      <trkpt lat="46.81252" lon="5.77819">
        <ele>588.6</ele>
        <time>2020-05-12T14:01:38Z</time>
      </trkpt>
      <trkpt lat="46.81248" lon="5.7782">
        <ele>588.3</ele>
        <time>2020-05-12T14:01:42Z</time>
      </trkpt>
      <trkpt lat="46.81243" lon="5.7782">
        <ele>588.2</ele>
        <time>2020-05-12T14:01:46Z</time>
      </trkpt>
      <trkpt lat="46.81224" lon="5.77819">
        <ele>587.4</ele>
        <time>2020-05-12T14:01:57Z</time>
      </trkpt>
      <trkpt lat="46.81214" lon="5.77817">
        <ele>588</ele>
        <time>2020-05-12T14:02:09Z</time>
      </trkpt>
      <trkpt lat="46.81208" lon="5.77816">
        <ele>586.9</ele>
        <time>2020-05-12T14:02:16Z</time>
      </trkpt>
      <trkpt lat="46.81203" lon="5.77818">
        <ele>586.4</ele>
        <time>2020-05-12T14:02:21Z</time>
      </trkpt>
      <trkpt lat="46.81199" lon="5.77821">
        <ele>585.8</ele>
        <time>2020-05-12T14:02:26Z</time>
      </trkpt>
      <trkpt lat="46.81194" lon="5.77821">
        <ele>585.6</ele>
        <time>2020-05-12T14:02:33Z</time>
      </trkpt>
      <trkpt lat="46.81188" lon="5.77826">
        <ele>585.9</ele>
        <time>2020-05-12T14:02:51Z</time>
      </trkpt>
      <trkpt lat="46.81174" lon="5.77823">
        <ele>584.3</ele>
        <time>2020-05-12T14:03:24Z</time>
      </trkpt>
      <trkpt lat="46.81169" lon="5.77823">
        <ele>583.7</ele>
        <time>2020-05-12T14:03:29Z</time>
      </trkpt>
      <trkpt lat="46.81165" lon="5.77826">
        <ele>582.7</ele>
        <time>2020-05-12T14:03:35Z</time>
      </trkpt>
      <trkpt lat="46.81161" lon="5.77832">
        <ele>581.7</ele>
        <time>2020-05-12T14:03:41Z</time>
      </trkpt>
      <trkpt lat="46.81159" lon="5.77839">
        <ele>580.8</ele>
        <time>2020-05-12T14:03:47Z</time>
      </trkpt>
      <trkpt lat="46.81157" lon="5.77845">
        <ele>580.1</ele>
        <time>2020-05-12T14:03:52Z</time>
      </trkpt>
      <trkpt lat="46.81154" lon="5.77851">
        <ele>579.7</ele>
        <time>2020-05-12T14:03:58Z</time>
      </trkpt>
      <trkpt lat="46.81151" lon="5.77864">
        <ele>579</ele>
        <time>2020-05-12T14:04:12Z</time>
      </trkpt>
      <trkpt lat="46.81149" lon="5.77874">
        <ele>578.3</ele>
        <time>2020-05-12T14:04:34Z</time>
      </trkpt>
      <trkpt lat="46.81151" lon="5.77881">
        <ele>578</ele>
        <time>2020-05-12T14:04:37Z</time>
      </trkpt>
      <trkpt lat="46.8115" lon="5.77889">
        <ele>577.3</ele>
        <time>2020-05-12T14:04:44Z</time>
      </trkpt>
      <trkpt lat="46.81149" lon="5.77897">
        <ele>576.7</ele>
        <time>2020-05-12T14:04:52Z</time>
      </trkpt>
      <trkpt lat="46.81147" lon="5.77903">
        <ele>576.7</ele>
        <time>2020-05-12T14:05:04Z</time>
      </trkpt>
      <trkpt lat="46.81147" lon="5.7791">
        <ele>576.6</ele>
        <time>2020-05-12T14:05:12Z</time>
      </trkpt>
      <trkpt lat="46.8114" lon="5.77934">
        <ele>575.3</ele>
        <time>2020-05-12T14:05:25Z</time>
      </trkpt>
      <trkpt lat="46.81139" lon="5.77973">
        <ele>574.1</ele>
        <time>2020-05-12T14:05:36Z</time>
      </trkpt>
      <trkpt lat="46.81138" lon="5.7798">
        <ele>573.3</ele>
        <time>2020-05-12T14:05:57Z</time>
      </trkpt>
      <trkpt lat="46.81136" lon="5.77986">
        <ele>573.2</ele>
        <time>2020-05-12T14:06:07Z</time>
      </trkpt>
      <trkpt lat="46.81133" lon="5.77995">
        <ele>573</ele>
        <time>2020-05-12T14:06:11Z</time>
      </trkpt>
      <trkpt lat="46.81132" lon="5.78002">
        <ele>572.8</ele>
        <time>2020-05-12T14:06:15Z</time>
      </trkpt>
      <trkpt lat="46.8113" lon="5.78009">
        <ele>572.9</ele>
        <time>2020-05-12T14:06:21Z</time>
      </trkpt>
      <trkpt lat="46.81126" lon="5.78016">
        <ele>573</ele>
        <time>2020-05-12T14:06:23Z</time>
      </trkpt>
      <trkpt lat="46.81123" lon="5.78022">
        <ele>573.1</ele>
        <time>2020-05-12T14:06:25Z</time>
      </trkpt>
      <trkpt lat="46.81121" lon="5.78027">
        <ele>573.7</ele>
        <time>2020-05-12T14:06:38Z</time>
      </trkpt>
      <trkpt lat="46.81118" lon="5.78061">
        <ele>574.7</ele>
        <time>2020-05-12T14:06:58Z</time>
      </trkpt>
      <trkpt lat="46.81118" lon="5.78069">
        <ele>574.7</ele>
        <time>2020-05-12T14:07:00Z</time>
      </trkpt>
      <trkpt lat="46.81108" lon="5.78083">
        <ele>573.5</ele>
        <time>2020-05-12T14:07:16Z</time>
      </trkpt>
      <trkpt lat="46.81103" lon="5.78087">
        <ele>573.2</ele>
        <time>2020-05-12T14:07:23Z</time>
      </trkpt>
      <trkpt lat="46.81103" lon="5.78095">
        <ele>572.8</ele>
        <time>2020-05-12T14:07:28Z</time>
      </trkpt>
      <trkpt lat="46.81101" lon="5.78102">
        <ele>572.4</ele>
        <time>2020-05-12T14:07:31Z</time>
      </trkpt>
      <trkpt lat="46.81103" lon="5.78111">
        <ele>570</ele>
        <time>2020-05-12T14:07:43Z</time>
      </trkpt>
      <trkpt lat="46.81092" lon="5.78135">
        <ele>568.6</ele>
        <time>2020-05-12T14:09:05Z</time>
      </trkpt>
      <trkpt lat="46.81092" lon="5.78127">
        <ele>568.3</ele>
        <time>2020-05-12T14:09:08Z</time>
      </trkpt>
      <trkpt lat="46.81091" lon="5.78118">
        <ele>568.1</ele>
        <time>2020-05-12T14:09:11Z</time>
      </trkpt>
      <trkpt lat="46.81089" lon="5.7811">
        <ele>568</ele>
        <time>2020-05-12T14:09:15Z</time>
      </trkpt>
      <trkpt lat="46.81087" lon="5.78104">
        <ele>567.9</ele>
        <time>2020-05-12T14:09:19Z</time>
      </trkpt>
      <trkpt lat="46.81085" lon="5.78097">
        <ele>568</ele>
        <time>2020-05-12T14:09:23Z</time>
      </trkpt>
      <trkpt lat="46.81086" lon="5.7809">
        <ele>568.2</ele>
        <time>2020-05-12T14:09:30Z</time>
      </trkpt>
      <trkpt lat="46.81096" lon="5.78057">
        <ele>574.3</ele>
        <time>2020-05-12T14:10:30Z</time>
      </trkpt>
      <trkpt lat="46.81106" lon="5.77996">
        <ele>572.1</ele>
        <time>2020-05-12T14:11:17Z</time>
      </trkpt>
      <trkpt lat="46.81106" lon="5.78006">
        <ele>578.4</ele>
        <time>2020-05-12T14:12:52Z</time>
      </trkpt>
      <trkpt lat="46.81089" lon="5.78042">
        <ele>576.2</ele>
        <time>2020-05-12T14:13:17Z</time>
      </trkpt>
      <trkpt lat="46.81087" lon="5.78049">
        <ele>575.4</ele>
        <time>2020-05-12T14:13:22Z</time>
      </trkpt>
      <trkpt lat="46.81081" lon="5.78065">
        <ele>572.6</ele>
        <time>2020-05-12T14:13:34Z</time>
      </trkpt>
      <trkpt lat="46.8108" lon="5.78073">
        <ele>572</ele>
        <time>2020-05-12T14:13:38Z</time>
      </trkpt>
      <trkpt lat="46.81078" lon="5.78079">
        <ele>570.6</ele>
        <time>2020-05-12T14:13:48Z</time>
      </trkpt>
      <trkpt lat="46.81077" lon="5.78085">
        <ele>567.6</ele>
        <time>2020-05-12T14:14:15Z</time>
      </trkpt>
      <trkpt lat="46.81069" lon="5.78099">
        <ele>563.5</ele>
        <time>2020-05-12T14:14:32Z</time>
      </trkpt>
      <trkpt lat="46.8105" lon="5.78122">
        <ele>561.9</ele>
        <time>2020-05-12T14:14:55Z</time>
      </trkpt>
      <trkpt lat="46.81019" lon="5.78146">
        <ele>559</ele>
        <time>2020-05-12T14:15:34Z</time>
      </trkpt>
      <trkpt lat="46.8096" lon="5.78235">
        <ele>557</ele>
        <time>2020-05-12T14:16:53Z</time>
      </trkpt>
      <trkpt lat="46.80943" lon="5.78314">
        <ele>546.9</ele>
        <time>2020-05-12T14:17:46Z</time>
      </trkpt>
      <trkpt lat="46.80942" lon="5.7832">
        <ele>546.4</ele>
        <time>2020-05-12T14:17:50Z</time>
      </trkpt>
      <trkpt lat="46.80939" lon="5.78327">
        <ele>545.4</ele>
        <time>2020-05-12T14:17:57Z</time>
      </trkpt>
      <trkpt lat="46.80938" lon="5.78334">
        <ele>545</ele>
        <time>2020-05-12T14:18:00Z</time>
      </trkpt>
      <trkpt lat="46.80937" lon="5.78341">
        <ele>544.7</ele>
        <time>2020-05-12T14:18:03Z</time>
      </trkpt>
      <trkpt lat="46.80934" lon="5.78347">
        <ele>543.8</ele>
        <time>2020-05-12T14:18:08Z</time>
      </trkpt>
      <trkpt lat="46.80935" lon="5.78359">
        <ele>539.9</ele>
        <time>2020-05-12T14:18:27Z</time>
      </trkpt>
      <trkpt lat="46.80909" lon="5.78423">
        <ele>537.1</ele>
        <time>2020-05-12T14:19:26Z</time>
      </trkpt>
      <trkpt lat="46.80903" lon="5.78426">
        <ele>537.2</ele>
        <time>2020-05-12T14:19:30Z</time>
      </trkpt>
      <trkpt lat="46.80898" lon="5.7843">
        <ele>537.3</ele>
        <time>2020-05-12T14:19:33Z</time>
      </trkpt>
      <trkpt lat="46.80886" lon="5.78435">
        <ele>537.6</ele>
        <time>2020-05-12T14:19:42Z</time>
      </trkpt>
      <trkpt lat="46.80873" lon="5.78446">
        <ele>539.3</ele>
        <time>2020-05-12T14:19:55Z</time>
      </trkpt>
      <trkpt lat="46.80866" lon="5.7845">
        <ele>541.6</ele>
        <time>2020-05-12T14:20:05Z</time>
      </trkpt>
      <trkpt lat="46.80853" lon="5.7845">
        <ele>546.1</ele>
        <time>2020-05-12T14:20:51Z</time>
      </trkpt>
      <trkpt lat="46.80835" lon="5.78465">
        <ele>551.6</ele>
        <time>2020-05-12T14:21:24Z</time>
      </trkpt>
      <trkpt lat="46.80831" lon="5.78471">
        <ele>552</ele>
        <time>2020-05-12T14:21:27Z</time>
      </trkpt>
      <trkpt lat="46.80827" lon="5.78474">
        <ele>552.4</ele>
        <time>2020-05-12T14:21:31Z</time>
      </trkpt>
      <trkpt lat="46.8082" lon="5.78476">
        <ele>552.9</ele>
        <time>2020-05-12T14:21:36Z</time>
      </trkpt>
      <trkpt lat="46.80815" lon="5.78477">
        <ele>553.4</ele>
        <time>2020-05-12T14:21:43Z</time>
      </trkpt>
      <trkpt lat="46.80807" lon="5.78485">
        <ele>553.8</ele>
        <time>2020-05-12T14:21:55Z</time>
      </trkpt>
      <trkpt lat="46.80803" lon="5.78489">
        <ele>553.9</ele>
        <time>2020-05-12T14:22:00Z</time>
      </trkpt>
      <trkpt lat="46.80799" lon="5.78493">
        <ele>554.1</ele>
        <time>2020-05-12T14:22:05Z</time>
      </trkpt>
      <trkpt lat="46.80793" lon="5.78499">
        <ele>554.2</ele>
        <time>2020-05-12T14:22:08Z</time>
      </trkpt>
      <trkpt lat="46.80787" lon="5.78504">
        <ele>554.2</ele>
        <time>2020-05-12T14:22:10Z</time>
      </trkpt>
      <trkpt lat="46.80783" lon="5.78507">
        <ele>554.2</ele>
        <time>2020-05-12T14:22:13Z</time>
      </trkpt>
      <trkpt lat="46.80779" lon="5.78508">
        <ele>554.2</ele>
        <time>2020-05-12T14:22:16Z</time>
      </trkpt>
      <trkpt lat="46.80773" lon="5.78514">
        <ele>554.4</ele>
        <time>2020-05-12T14:22:23Z</time>
      </trkpt>
      <trkpt lat="46.80768" lon="5.78517">
        <ele>554.3</ele>
        <time>2020-05-12T14:22:25Z</time>
      </trkpt>
      <trkpt lat="46.80764" lon="5.78521">
        <ele>554.2</ele>
        <time>2020-05-12T14:22:27Z</time>
      </trkpt>
      <trkpt lat="46.8076" lon="5.78525">
        <ele>553.9</ele>
        <time>2020-05-12T14:22:32Z</time>
      </trkpt>
      <trkpt lat="46.80756" lon="5.78527">
        <ele>553.7</ele>
        <time>2020-05-12T14:22:39Z</time>
      </trkpt>
      <trkpt lat="46.80752" lon="5.78531">
        <ele>553.3</ele>
        <time>2020-05-12T14:22:44Z</time>
      </trkpt>
      <trkpt lat="46.80747" lon="5.78533">
        <ele>552.6</ele>
        <time>2020-05-12T14:22:50Z</time>
      </trkpt>
      <trkpt lat="46.80742" lon="5.78536">
        <ele>551.1</ele>
        <time>2020-05-12T14:22:57Z</time>
      </trkpt>
      <trkpt lat="46.80735" lon="5.78542">
        <ele>546.8</ele>
        <time>2020-05-12T14:23:08Z</time>
      </trkpt>
      <trkpt lat="46.8073" lon="5.78544">
        <ele>546.7</ele>
        <time>2020-05-12T14:23:12Z</time>
      </trkpt>
      <trkpt lat="46.80727" lon="5.78551">
        <ele>548.2</ele>
        <time>2020-05-12T14:23:49Z</time>
      </trkpt>
      <trkpt lat="46.80722" lon="5.78557">
        <ele>548.9</ele>
        <time>2020-05-12T14:23:52Z</time>
      </trkpt>
      <trkpt lat="46.80702" lon="5.78613">
        <ele>549.9</ele>
        <time>2020-05-12T14:24:48Z</time>
      </trkpt>
      <trkpt lat="46.807" lon="5.78619">
        <ele>549.7</ele>
        <time>2020-05-12T14:24:52Z</time>
      </trkpt>
      <trkpt lat="46.80692" lon="5.78643">
        <ele>546.4</ele>
        <time>2020-05-12T14:25:12Z</time>
      </trkpt>
      <trkpt lat="46.80691" lon="5.7865">
        <ele>545.7</ele>
        <time>2020-05-12T14:25:18Z</time>
      </trkpt>
      <trkpt lat="46.80693" lon="5.78673">
        <ele>542</ele>
        <time>2020-05-12T14:25:43Z</time>
      </trkpt>
      <trkpt lat="46.80694" lon="5.78681">
        <ele>543.7</ele>
        <time>2020-05-12T14:26:11Z</time>
      </trkpt>
      <trkpt lat="46.80691" lon="5.78686">
        <ele>545.8</ele>
        <time>2020-05-12T14:26:58Z</time>
      </trkpt>
      <trkpt lat="46.80688" lon="5.78691">
        <ele>545.4</ele>
        <time>2020-05-12T14:27:14Z</time>
      </trkpt>
      <trkpt lat="46.80624" lon="5.78704">
        <ele>561.8</ele>
        <time>2020-05-12T14:30:00Z</time>
      </trkpt>
    </trkseg>
  </trk>
</gpx>